createdAt,value
2022-12-29T00:02:03.204Z,99188.91
2022-12-29T00:04:30.754Z,99181.09
2022-12-29T00:06:58.410Z,99181.84
2022-12-29T00:09:25.852Z,99181.09
2022-12-29T00:11:53.398Z,99175.63
2022-12-29T00:14:39.925Z,99166.84
2022-12-29T00:17:07.423Z,99173.00
2022-12-29T00:20:04.035Z,99164.97
2022-12-29T00:22:49.297Z,99162.59
2022-12-29T00:25:34.746Z,99157.97
2022-12-29T00:28:19.866Z,99112.00
2022-12-29T00:31:20.751Z,99153.28
2022-12-29T00:34:05.553Z,99150.59
2022-12-29T00:36:34.605Z,99166.09
2022-12-29T00:39:20.528Z,99153.78
2022-12-29T00:42:06.334Z,99162.19
2022-12-29T00:44:33.872Z,99155.59
2022-12-29T00:47:05.315Z,99159.75
2022-12-29T00:49:32.334Z,99154.78
2022-12-29T00:52:00.709Z,99146.53
2022-12-29T00:54:28.359Z,99144.38
2022-12-29T00:56:55.847Z,99140.53
2022-12-29T00:59:24.895Z,99155.53
2022-12-29T01:01:52.769Z,99149.94
2022-12-29T01:04:22.276Z,99154.75
2022-12-29T01:06:50.096Z,99161.09
2022-12-29T01:09:35.630Z,99161.91
2022-12-29T01:12:03.077Z,99143.59
2022-12-29T01:14:30.492Z,99139.66
2022-12-29T01:16:58.489Z,99133.88
2022-12-29T01:19:27.326Z,99132.56
2022-12-29T01:21:55.008Z,99133.13
2022-12-29T01:24:23.059Z,99133.13
2022-12-29T01:26:50.877Z,99129.16
2022-12-29T01:29:18.870Z,99120.16
2022-12-29T01:31:46.482Z,99125.56
2022-12-29T01:34:14.113Z,99129.06
2022-12-29T01:36:42.998Z,99120.22
2022-12-29T01:39:10.460Z,99112.41
2022-12-29T01:41:37.987Z,99105.00
2022-12-29T01:44:20.259Z,99114.84
2022-12-29T01:46:49.040Z,99103.19
2022-12-29T01:49:18.308Z,99109.22
2022-12-29T01:51:49.895Z,99120.22
2022-12-29T01:54:20.294Z,99106.78
2022-12-29T01:56:48.331Z,99102.38
2022-12-29T01:59:19.141Z,99110.75
2022-12-29T02:01:46.766Z,99108.72
2022-12-29T02:04:14.514Z,99089.09
2022-12-29T02:06:45.202Z,99095.91
2022-12-29T02:09:14.160Z,99101.09
2022-12-29T02:11:41.990Z,99106.31
2022-12-29T02:14:10.895Z,99105.47
2022-12-29T02:16:45.894Z,99109.59
2022-12-29T02:19:41.640Z,99114.59
2022-12-29T02:22:18.248Z,99113.56
2022-12-29T02:24:57.978Z,99105.78
2022-12-29T02:27:44.459Z,99116.38
2022-12-29T02:30:20.132Z,99105.78
2022-12-29T02:32:52.598Z,99106.00
2022-12-29T02:35:25.186Z,99096.16
2022-12-29T02:38:00.465Z,99106.75
2022-12-29T02:40:32.692Z,99109.69
2022-12-29T02:43:03.833Z,99090.50
2022-12-29T02:45:33.848Z,99102.59
2022-12-29T02:48:08.056Z,99102.16
2022-12-29T02:50:36.946Z,99101.94
2022-12-29T02:53:07.065Z,99112.59
2022-12-29T02:55:33.920Z,99100.41
2022-12-29T02:58:17.710Z,99121.41
2022-12-29T03:00:50.733Z,99125.84
2022-12-29T03:03:28.057Z,99117.28
2022-12-29T03:06:01.121Z,99119.03
2022-12-29T03:08:33.377Z,99127.06
2022-12-29T03:11:02.786Z,99133.94
2022-12-29T03:13:49.495Z,99137.34
2022-12-29T03:16:22.217Z,99152.13
2022-12-29T03:18:54.267Z,99155.94
2022-12-29T03:21:44.865Z,99165.16
2022-12-29T03:24:12.816Z,99178.03
2022-12-29T03:26:41.916Z,99176.47
2022-12-29T03:29:10.291Z,99179.28
2022-12-29T03:31:38.429Z,99189.72
2022-12-29T03:34:08.604Z,99197.41
2022-12-29T03:36:41.031Z,99195.00
2022-12-29T03:39:12.733Z,99165.31
2022-12-29T03:41:42.028Z,99191.22
2022-12-29T03:44:09.544Z,99205.25
2022-12-29T03:46:37.323Z,99198.63
2022-12-29T03:49:05.011Z,99183.66
2022-12-29T03:51:33.880Z,99198.28
2022-12-29T03:54:01.778Z,99195.09
2022-12-29T03:56:29.321Z,99197.50
2022-12-29T03:58:56.758Z,99195.13
2022-12-29T04:01:24.280Z,99192.16
2022-12-29T04:03:51.857Z,99190.34
2022-12-29T04:06:19.435Z,99190.50
2022-12-29T04:08:48.303Z,99207.13
2022-12-29T04:11:15.772Z,99211.72
2022-12-29T04:13:43.203Z,99206.91
2022-12-29T04:16:10.738Z,99225.75
2022-12-29T04:18:38.272Z,99223.91
2022-12-29T04:21:07.530Z,99220.53
2022-12-29T04:23:36.570Z,99215.88
2022-12-29T04:26:07.339Z,99213.47
2022-12-29T04:28:35.402Z,99221.75
2022-12-29T04:31:03.459Z,99232.56
2022-12-29T04:33:31.027Z,99238.38
2022-12-29T04:35:58.512Z,99238.16
2022-12-29T04:38:26.072Z,99246.59
2022-12-29T04:40:53.617Z,99257.00
2022-12-29T04:43:22.989Z,99255.59
2022-12-29T04:45:50.541Z,99259.81
2022-12-29T04:48:18.093Z,99276.59
2022-12-29T04:50:45.859Z,99280.00
2022-12-29T04:53:13.350Z,99279.81
2022-12-29T04:55:40.786Z,99294.50
2022-12-29T04:58:08.324Z,99299.31
2022-12-29T05:00:37.195Z,99306.72
2022-12-29T05:03:04.931Z,99310.72
2022-12-29T05:05:32.569Z,99315.00
2022-12-29T05:08:00.122Z,99334.19
2022-12-29T05:10:27.620Z,99339.41
2022-12-29T05:12:55.120Z,99323.22
2022-12-29T05:15:23.880Z,99324.06
2022-12-29T05:17:52.905Z,99335.06
2022-12-29T05:20:20.749Z,99319.06
2022-12-29T05:22:48.217Z,99311.28
2022-12-29T05:25:15.742Z,99308.50
2022-12-29T05:27:43.225Z,99300.13
2022-12-29T05:30:11.293Z,99293.13
2022-12-29T05:32:38.740Z,99287.91
2022-12-29T05:35:08.143Z,99282.50
2022-12-29T05:37:35.733Z,99291.75
2022-12-29T05:40:03.480Z,99295.34
2022-12-29T05:42:30.958Z,99284.75
2022-12-29T05:44:58.538Z,99290.94
2022-12-29T05:47:26.067Z,99287.91
2022-12-29T05:49:53.647Z,99288.75
2022-12-29T05:52:22.467Z,99293.16
2022-12-29T05:54:49.915Z,99292.16
2022-12-29T05:57:17.410Z,99286.78
2022-12-29T05:59:44.989Z,99288.38
2022-12-29T06:02:12.603Z,99298.59
2022-12-29T06:04:40.252Z,99305.78
2022-12-29T06:07:07.709Z,99299.59
2022-12-29T06:09:36.530Z,99301.56
2022-12-29T06:12:04.057Z,99303.75
2022-12-29T06:14:31.474Z,99299.75
2022-12-29T06:16:58.979Z,99315.56
2022-12-29T06:19:26.461Z,99308.78
2022-12-29T06:21:54.704Z,99301.56
2022-12-29T06:24:22.216Z,99320.41
2022-12-29T06:26:51.037Z,99316.22
2022-12-29T06:29:18.908Z,99329.59
2022-12-29T06:31:47.066Z,99324.03
2022-12-29T06:34:14.856Z,99328.22
2022-12-29T06:36:42.379Z,99333.44
2022-12-29T06:39:09.882Z,99328.44
2022-12-29T06:41:37.429Z,99331.22
2022-12-29T06:44:06.325Z,99278.63
2022-12-29T06:46:33.907Z,99341.25
2022-12-29T06:49:01.488Z,99342.25
2022-12-29T06:51:28.995Z,99338.66
2022-12-29T06:53:56.514Z,99336.84
2022-12-29T06:56:24.011Z,99341.66
2022-12-29T06:58:51.649Z,99349.84
2022-12-29T07:01:20.668Z,99345.22
2022-12-29T07:03:48.198Z,99353.63
2022-12-29T07:06:15.708Z,99368.06
2022-12-29T07:08:43.219Z,99369.25
2022-12-29T07:11:10.940Z,99384.44
2022-12-29T07:13:38.618Z,99376.03
2022-12-29T07:16:09.736Z,99397.47
2022-12-29T07:18:38.549Z,99401.25
2022-12-29T07:21:06.466Z,99403.09
2022-12-29T07:23:34.100Z,99416.09
2022-12-29T07:26:02.135Z,99422.91
2022-12-29T07:28:29.663Z,99444.13
2022-12-29T07:30:57.204Z,99420.91
2022-12-29T07:33:24.723Z,99420.28
2022-12-29T07:35:53.672Z,99382.66
2022-12-29T07:38:21.175Z,99416.09
2022-12-29T07:40:48.747Z,99418.47
2022-12-29T07:43:16.243Z,99414.47
2022-12-29T07:45:43.737Z,99414.88
2022-12-29T07:48:11.224Z,99406.09
2022-12-29T07:50:39.054Z,99390.47
2022-12-29T07:53:07.945Z,99409.28
2022-12-29T07:55:35.514Z,99406.88
2022-12-29T07:58:02.985Z,99401.69
2022-12-29T08:00:31.350Z,99405.69
2022-12-29T08:02:58.940Z,99395.09
2022-12-29T08:05:26.584Z,99392.88
2022-12-29T08:07:54.064Z,99392.28
2022-12-29T08:10:22.910Z,99388.66
2022-12-29T08:12:51.660Z,99386.47
2022-12-29T08:15:19.291Z,99398.28
2022-12-29T08:17:46.780Z,99392.47
2022-12-29T08:20:14.232Z,99396.06
2022-12-29T08:22:42.058Z,99404.06
2022-12-29T08:25:10.097Z,99413.88
2022-12-29T08:27:39.035Z,99409.28
2022-12-29T08:30:07.117Z,99408.66
2022-12-29T08:32:34.724Z,99419.69
2022-12-29T08:35:02.516Z,99401.09
2022-12-29T08:37:31.435Z,99413.69
2022-12-29T08:39:59.790Z,99419.69
2022-12-29T08:42:31.820Z,99423.50
2022-12-29T08:45:00.902Z,99427.28
2022-12-29T08:47:28.749Z,99421.28
2022-12-29T08:49:56.325Z,99424.88
2022-12-29T08:52:23.896Z,99438.91
2022-12-29T08:54:51.741Z,99428.91
2022-12-29T08:57:19.170Z,99413.09
2022-12-29T08:59:46.745Z,99430.72
2022-12-29T09:02:22.104Z,99423.28
2022-12-29T09:04:51.770Z,99436.72
2022-12-29T09:07:19.384Z,99444.09
2022-12-29T09:09:46.968Z,99445.31
2022-12-29T09:12:14.503Z,99443.31
2022-12-29T09:14:43.822Z,99456.53
2022-12-29T09:17:28.454Z,99441.28
2022-12-29T09:19:57.404Z,99447.09
2022-12-29T09:22:24.891Z,99438.91
2022-12-29T09:24:52.388Z,99425.25
2022-12-29T09:27:19.887Z,99427.69
2022-12-29T09:29:47.403Z,99425.81
2022-12-29T09:32:18.598Z,99444.63
2022-12-29T09:34:46.910Z,99435.03
2022-12-29T09:37:15.897Z,99394.78
2022-12-29T09:39:45.528Z,99436.66
2022-12-29T09:42:21.340Z,99439.88
2022-12-29T09:44:52.853Z,99444.06
2022-12-29T09:47:21.250Z,99438.28
2022-12-29T09:49:50.649Z,99436.41
2022-12-29T09:52:22.366Z,99436.00
2022-12-29T09:54:59.786Z,99448.19
2022-12-29T09:57:29.556Z,99445.97
2022-12-29T09:59:59.089Z,99450.59
2022-12-29T10:02:31.326Z,99459.41
2022-12-29T10:04:59.172Z,99457.00
2022-12-29T10:07:33.582Z,99452.00
2022-12-29T10:10:05.052Z,99456.59
2022-12-29T10:12:38.348Z,99460.00
2022-12-29T10:15:12.593Z,99446.00
2022-12-29T10:17:43.903Z,99447.00
2022-12-29T10:20:22.762Z,99447.81
2022-12-29T10:23:00.115Z,99450.28
2022-12-29T10:25:31.258Z,99450.09
2022-12-29T10:28:02.359Z,99450.84
2022-12-29T10:30:30.682Z,99457.88
2022-12-29T10:33:00.149Z,99455.28
2022-12-29T10:35:28.553Z,99463.91
2022-12-29T10:38:00.390Z,99462.13
2022-12-29T10:40:29.408Z,99468.31
2022-12-29T10:42:57.841Z,99489.72
2022-12-29T10:45:27.982Z,99482.72
2022-12-29T10:47:57.797Z,99491.34
2022-12-29T10:50:26.536Z,99495.16
2022-12-29T10:52:54.639Z,99501.34
2022-12-29T10:55:25.175Z,99518.56
2022-12-29T10:57:52.625Z,99521.38
2022-12-29T11:00:21.983Z,99514.97
2022-12-29T11:03:04.435Z,99524.00
2022-12-29T11:05:36.867Z,99528.41
2022-12-29T11:08:07.025Z,99540.03
2022-12-29T11:10:39.766Z,99547.84
2022-12-29T11:13:13.438Z,99542.84
2022-12-29T11:15:41.712Z,99556.88
2022-12-29T11:18:19.818Z,99558.47
2022-12-29T11:20:47.326Z,99564.06
2022-12-29T11:23:24.099Z,99573.50
2022-12-29T11:26:07.256Z,99583.72
2022-12-29T11:28:35.272Z,99586.53
2022-12-29T11:31:03.542Z,99596.13
2022-12-29T11:33:31.268Z,99612.19
2022-12-29T11:36:00.255Z,99614.78
2022-12-29T11:38:34.266Z,99612.56
2022-12-29T11:41:03.894Z,99617.19
2022-12-29T11:43:34.383Z,99628.81
2022-12-29T11:46:04.516Z,99648.66
2022-12-29T11:48:35.697Z,99640.03
2022-12-29T11:51:03.300Z,99662.47
2022-12-29T11:53:38.380Z,99659.06
2022-12-29T11:56:10.134Z,99676.53
2022-12-29T11:58:38.764Z,99673.31
2022-12-29T12:01:08.567Z,99686.53
2022-12-29T12:03:38.616Z,99683.53
2022-12-29T12:06:08.347Z,99693.75
2022-12-29T12:08:38.022Z,99701.78
2022-12-29T12:11:11.540Z,99716.22
2022-12-29T12:13:41.201Z,99729.25
2022-12-29T12:16:10.757Z,99734.66
2022-12-29T12:18:43.686Z,99735.66
2022-12-29T12:21:15.563Z,99743.66
2022-12-29T12:23:49.830Z,99745.47
2022-12-29T12:26:22.163Z,99750.03
2022-12-29T12:28:53.522Z,99747.06
2022-12-29T12:31:25.324Z,99757.84
2022-12-29T12:33:55.664Z,99764.44
2022-12-29T12:36:30.426Z,99769.06
2022-12-29T12:39:03.362Z,99782.06
2022-12-29T12:41:39.562Z,99791.09
2022-12-29T12:44:12.915Z,99794.28
2022-12-29T12:47:01.582Z,99797.13
2022-12-29T12:49:40.986Z,99805.88
2022-12-29T12:52:12.885Z,99799.25
2022-12-29T12:54:48.091Z,99798.41
2022-12-29T12:57:19.814Z,99803.09
2022-12-29T12:59:54.569Z,99797.25
2022-12-29T13:02:28.935Z,99795.09
2022-12-29T13:05:14.475Z,99792.09
2022-12-29T13:07:47.832Z,99799.69
2022-12-29T13:10:21.499Z,99789.69
2022-12-29T13:12:54.527Z,99790.88
2022-12-29T13:15:29.029Z,99792.91
2022-12-29T13:18:01.525Z,99801.56
2022-12-29T13:20:33.699Z,99801.16
2022-12-29T13:23:05.283Z,99821.56
2022-12-29T13:25:38.444Z,99828.16
2022-12-29T13:28:11.429Z,99827.56
2022-12-29T13:30:43.917Z,99844.22
2022-12-29T13:33:21.408Z,99849.63
2022-12-29T13:35:55.978Z,99852.00
2022-12-29T13:38:26.688Z,99840.78
2022-12-29T13:40:57.016Z,99839.25
2022-12-29T13:43:27.042Z,99844.44
2022-12-29T13:45:59.590Z,99849.66
2022-12-29T13:48:31.699Z,99846.28
2022-12-29T13:51:00.654Z,99847.31
2022-12-29T13:53:32.565Z,99844.88
2022-12-29T13:56:05.376Z,99849.47
2022-12-29T13:58:37.076Z,99842.44
2022-12-29T14:01:10.952Z,99844.25
2022-12-29T14:03:50.490Z,99836.44
2022-12-29T14:06:21.892Z,99823.78
2022-12-29T14:08:49.965Z,99830.38
2022-12-29T14:11:18.849Z,99819.81
2022-12-29T14:13:48.402Z,99813.56
2022-12-29T14:16:26.586Z,99821.38
2022-12-29T14:18:55.100Z,99820.81
2022-12-29T14:21:28.739Z,99828.50
2022-12-29T14:23:56.265Z,99816.81
2022-12-29T14:26:37.402Z,99807.75
2022-12-29T14:29:38.783Z,99797.50
2022-12-29T14:32:31.548Z,99794.31
2022-12-29T14:34:59.528Z,99800.25
2022-12-29T14:37:28.419Z,99796.28
2022-12-29T14:40:07.661Z,99787.19
2022-12-29T14:42:35.634Z,99794.06
2022-12-29T14:45:07.761Z,99794.41
2022-12-29T14:47:36.965Z,99799.78
2022-12-29T14:50:09.636Z,99810.19
2022-12-29T14:52:47.615Z,99814.72
2022-12-29T14:55:32.098Z,99816.69
2022-12-29T14:58:02.053Z,99805.84
2022-12-29T15:00:33.187Z,99814.63
2022-12-29T15:03:06.504Z,99803.88
2022-12-29T15:05:36.999Z,99804.06
2022-12-29T15:08:05.461Z,99799.81
2022-12-29T15:10:36.674Z,99797.22
2022-12-29T15:13:05.596Z,99790.22
2022-12-29T15:15:38.692Z,99777.75
2022-12-29T15:18:16.117Z,99780.97
2022-12-29T15:20:44.209Z,99776.75
2022-12-29T15:23:15.215Z,99766.16
2022-12-29T15:25:49.313Z,99762.44
2022-12-29T15:28:17.287Z,99766.47
2022-12-29T15:30:53.648Z,99763.31
2022-12-29T15:33:22.820Z,99764.13
2022-12-29T15:35:52.320Z,99764.94
2022-12-29T15:38:30.281Z,99762.06
2022-12-29T15:41:02.808Z,99771.47
2022-12-29T15:43:44.885Z,99774.88
2022-12-29T15:46:15.927Z,99782.84
2022-12-29T15:48:43.849Z,99774.88
2022-12-29T15:51:18.937Z,99788.94
2022-12-29T15:53:48.762Z,99791.94
2022-12-29T15:56:16.451Z,99802.00
2022-12-29T15:58:45.912Z,99799.84
2022-12-29T16:01:20.719Z,99813.75
2022-12-29T16:03:48.723Z,99817.06
2022-12-29T16:06:29.950Z,99817.41
2022-12-29T16:08:58.470Z,99828.19
2022-12-29T16:11:28.776Z,99837.00
2022-12-29T16:13:57.480Z,99837.16
2022-12-29T16:16:29.183Z,99840.94
2022-12-29T16:18:58.398Z,99839.16
2022-12-29T16:21:28.559Z,99848.19
2022-12-29T16:23:57.190Z,99850.97
2022-12-29T16:26:25.571Z,99850.28
2022-12-29T16:28:56.383Z,99855.22
2022-12-29T16:31:26.144Z,99856.84
2022-12-29T16:33:55.642Z,99860.25
2022-12-29T16:36:27.458Z,99867.25
2022-12-29T16:39:06.390Z,99869.22
2022-12-29T16:41:34.183Z,99870.78
2022-12-29T16:44:15.333Z,99886.75
2022-12-29T16:46:46.310Z,99889.53
2022-12-29T16:49:21.590Z,99889.91
2022-12-29T16:51:49.383Z,99895.09
2022-12-29T16:54:21.921Z,99894.84
2022-12-29T16:56:49.995Z,99901.41
2022-12-29T16:59:29.133Z,99909.38
2022-12-29T17:01:57.383Z,99917.13
2022-12-29T17:04:26.291Z,99920.94
2022-12-29T17:06:53.872Z,99919.28
2022-12-29T17:09:22.709Z,99925.22
2022-12-29T17:12:05.350Z,99936.78
2022-12-29T17:14:40.567Z,99933.66
2022-12-29T17:17:13.227Z,99952.44
2022-12-29T17:19:44.172Z,99947.25
2022-12-29T17:22:12.899Z,99953.72
2022-12-29T17:24:40.417Z,99961.44
2022-12-29T17:27:07.939Z,99978.72
2022-12-29T17:29:37.767Z,99964.72
2022-12-29T17:32:06.745Z,99972.06
2022-12-29T17:34:34.453Z,99982.63
2022-12-29T17:37:04.205Z,99991.88
2022-12-29T17:39:31.692Z,99980.66
2022-12-29T17:41:59.188Z,100025.28
2022-12-29T17:44:29.805Z,100011.47
2022-12-29T17:46:57.272Z,100020.19
2022-12-29T17:49:24.765Z,100019.38
2022-12-29T17:51:52.309Z,100014.19
2022-12-29T17:54:22.722Z,100020.69
2022-12-29T17:56:50.179Z,100027.69
2022-12-29T17:59:18.067Z,100026.25
2022-12-29T18:01:46.601Z,100025.34
2022-12-29T18:04:15.125Z,100028.03
2022-12-29T18:06:43.350Z,100033.59
2022-12-29T18:09:10.864Z,100039.81
2022-12-29T18:11:41.081Z,100035.00
2022-12-29T18:14:12.741Z,100045.22
2022-12-29T18:16:40.202Z,100048.50
2022-12-29T18:19:07.697Z,100069.91
2022-12-29T18:21:35.134Z,100064.19
2022-12-29T18:24:02.683Z,100067.31
2022-12-29T18:26:31.772Z,100063.25
2022-12-29T18:29:00.673Z,100074.63
2022-12-29T18:31:29.515Z,100075.16
2022-12-29T18:33:57.806Z,100073.72
2022-12-29T18:36:25.671Z,100095.94
2022-12-29T18:38:54.776Z,100104.50
2022-12-29T18:41:23.906Z,100093.13
2022-12-29T18:43:51.438Z,100101.47
2022-12-29T18:46:23.114Z,100099.94
2022-12-29T18:48:51.230Z,100093.50
2022-12-29T18:51:19.681Z,100050.38
2022-12-29T18:53:47.365Z,100097.13
2022-12-29T18:56:15.149Z,100100.97
2022-12-29T18:58:42.622Z,100109.66
2022-12-29T19:01:18.418Z,100100.88
2022-12-29T19:03:47.380Z,100102.31
2022-12-29T19:06:14.846Z,100110.47
2022-12-29T19:08:42.344Z,100109.00
2022-12-29T19:11:09.948Z,100112.41
2022-12-29T19:13:37.447Z,100112.25
2022-12-29T19:16:06.540Z,100098.78
2022-12-29T19:19:05.728Z,100107.22
2022-12-29T19:21:22.962Z,100096.03
2022-12-29T19:23:51.824Z,100106.75
2022-12-29T19:26:28.238Z,100103.84
2022-12-29T19:28:55.731Z,100112.75
2022-12-29T19:31:23.272Z,100112.75
2022-12-29T19:33:50.770Z,100126.53
2022-12-29T19:36:18.216Z,100127.03
2022-12-29T19:38:47.329Z,100134.06
2022-12-29T19:41:15.425Z,100130.97
2022-12-29T19:43:43.098Z,100129.34
2022-12-29T19:46:11.303Z,100126.09
2022-12-29T19:48:38.787Z,100118.59
2022-12-29T19:51:07.690Z,100127.91
2022-12-29T19:53:35.301Z,100127.25
2022-12-29T19:56:04.857Z,100126.28
2022-12-29T19:58:32.560Z,100131.78
2022-12-29T20:01:04.815Z,100118.16
2022-12-29T20:03:32.382Z,100133.56
2022-12-29T20:05:59.893Z,100127.59
2022-12-29T20:08:27.352Z,100124.19
2022-12-29T20:10:58.599Z,100127.13
2022-12-29T20:13:27.561Z,100126.19
2022-12-29T20:15:58.409Z,100122.31
2022-12-29T20:18:29.204Z,100130.91
2022-12-29T20:21:02.164Z,100130.72
2022-12-29T20:23:29.688Z,100125.53
2022-12-29T20:25:57.376Z,100138.66
2022-12-29T20:28:25.069Z,100143.19
2022-12-29T20:30:58.625Z,100147.25
2022-12-29T20:33:26.411Z,100147.75
2022-12-29T20:35:54.222Z,100149.84
2022-12-29T20:38:21.675Z,100151.63
2022-12-29T20:40:49.159Z,100154.38
2022-12-29T20:43:17.330Z,100148.88
2022-12-29T20:45:44.996Z,100153.53
2022-12-29T20:48:14.081Z,100149.03
2022-12-29T20:50:41.543Z,100154.22
2022-12-29T20:53:09.069Z,100141.53
2022-12-29T20:55:40.365Z,100147.09
2022-12-29T20:58:24.798Z,100149.69
2022-12-29T21:00:52.904Z,100154.16
2022-12-29T21:03:22.025Z,100147.38
2022-12-29T21:05:49.563Z,100159.19
2022-12-29T21:08:17.022Z,100160.97
2022-12-29T21:10:47.399Z,100161.66
2022-12-29T21:13:15.288Z,100164.88
2022-12-29T21:15:42.821Z,100179.31
2022-12-29T21:18:10.294Z,100176.88
2022-12-29T21:20:39.055Z,100173.03
2022-12-29T21:23:06.952Z,100179.13
2022-12-29T21:25:38.062Z,100181.25
2022-12-29T21:28:05.637Z,100141.38
2022-12-29T21:30:33.245Z,100192.34
2022-12-29T21:33:01.276Z,100203.88
2022-12-29T21:35:29.004Z,100193.81
2022-12-29T21:37:58.011Z,100201.94
2022-12-29T21:40:25.424Z,100206.03
2022-12-29T21:42:52.918Z,100204.56
2022-12-29T21:45:25.185Z,100206.84
2022-12-29T21:48:10.185Z,100211.19
2022-12-29T21:50:58.258Z,100213.34
2022-12-29T21:53:37.578Z,100218.03
2022-12-29T21:56:05.815Z,100215.94
2022-12-29T21:58:50.903Z,100220.78
2022-12-29T22:01:35.917Z,100227.28
2022-12-29T22:04:21.175Z,100225.34
2022-12-29T22:07:06.356Z,100233.44
2022-12-29T22:09:53.168Z,100235.03
2022-12-29T22:12:38.967Z,100242.81
2022-12-29T22:15:06.999Z,100247.06
2022-12-29T22:17:37.652Z,100245.59
2022-12-29T22:20:06.049Z,100253.53
2022-12-29T22:22:33.517Z,100246.25
2022-12-29T22:25:02.706Z,100260.50
2022-12-29T22:27:30.299Z,100255.97
2022-12-29T22:29:57.870Z,100266.81
2022-12-29T22:32:25.341Z,100257.75
2022-12-29T22:34:52.945Z,100269.91
2022-12-29T22:37:21.484Z,100275.25
2022-12-29T22:39:49.294Z,100291.28
2022-12-29T22:42:18.508Z,100285.63
2022-12-29T22:44:46.124Z,100297.09
2022-12-29T22:47:13.720Z,100300.34
2022-12-29T22:49:41.214Z,100304.88
2022-12-29T22:52:08.801Z,100297.41
2022-12-29T22:54:36.284Z,100300.34
2022-12-29T22:57:03.727Z,100303.41
2022-12-29T22:59:32.964Z,100319.78
2022-12-29T23:02:00.592Z,100319.25
2022-12-29T23:07:15.546Z,100327.53
2022-12-29T23:09:43.051Z,100330.94
2022-12-29T23:12:10.567Z,100330.88
2022-12-29T23:14:39.507Z,100324.44
2022-12-29T23:17:07.066Z,100332.50
2022-12-29T23:19:34.605Z,100330.88
2022-12-29T23:22:02.375Z,100340.59
2022-12-29T23:24:29.875Z,100332.00
2022-12-29T23:26:57.381Z,100344.63
2022-12-29T23:29:25.167Z,100339.91
2022-12-29T23:31:54.049Z,100327.28
2022-12-29T23:34:21.614Z,100343.31
2022-12-29T23:36:50.276Z,100350.28
2022-12-29T23:39:21.440Z,100347.69
2022-12-29T23:41:48.972Z,100343.78
2022-12-29T23:44:16.559Z,100345.75
2022-12-29T23:46:44.186Z,100345.41
2022-12-29T23:49:13.326Z,100351.53
2022-12-29T23:51:40.873Z,100339.25
2022-12-29T23:54:08.710Z,100342.16
2022-12-29T23:56:36.203Z,100352.81
2022-12-29T23:59:04.223Z,100347.78
